createdAt,value
2024-03-26T00:05:47.748Z,4.2
2024-03-26T00:17:47.655Z,4.2
2024-03-26T00:29:47.736Z,4.1
2024-03-26T00:41:47.683Z,4.2
2024-03-26T00:53:47.726Z,4.0
2024-03-26T01:05:47.748Z,3.8
2024-03-26T01:17:47.723Z,3.4
2024-03-26T01:29:47.660Z,3.2
2024-03-26T01:41:47.751Z,3.3
2024-03-26T01:53:47.663Z,3.6
2024-03-26T02:05:47.690Z,3.5
2024-03-26T02:17:47.713Z,3.6
2024-03-26T02:29:47.656Z,3.5
2024-03-26T02:41:47.710Z,3.7
2024-03-26T02:53:47.714Z,3.8
2024-03-26T03:05:47.858Z,3.7
2024-03-26T03:17:47.774Z,3.6
2024-03-26T03:29:47.686Z,3.6
2024-03-26T03:41:47.715Z,3.5
2024-03-26T03:53:47.647Z,3.4
2024-03-26T04:05:47.759Z,3.2
2024-03-26T04:17:48.125Z,3.1
2024-03-26T04:29:47.660Z,3.2
2024-03-26T04:41:47.749Z,3.2
2024-03-26T04:53:47.648Z,3.4
2024-03-26T05:05:47.732Z,3.4
2024-03-26T05:17:47.752Z,3.5
2024-03-26T05:29:47.650Z,3.5
2024-03-26T05:41:47.683Z,3.6
2024-03-26T05:53:47.620Z,3.6
2024-03-26T06:05:47.639Z,3.7
2024-03-26T06:17:47.732Z,3.7
2024-03-26T06:29:47.632Z,3.9
2024-03-26T06:41:47.713Z,4.1
2024-03-26T06:53:47.685Z,4.1
2024-03-26T07:05:47.742Z,4.2
2024-03-26T07:17:47.685Z,4.4
2024-03-26T07:29:47.700Z,4.4
2024-03-26T07:41:47.807Z,4.7
2024-03-26T07:53:47.666Z,4.7
2024-03-26T08:05:47.740Z,4.9
2024-03-26T08:17:47.734Z,5.2
2024-03-26T08:29:47.629Z,5.4
2024-03-26T08:41:47.624Z,5.6
2024-03-26T08:53:47.712Z,5.6
2024-03-26T09:05:47.660Z,5.7
2024-03-26T09:17:47.784Z,5.9
2024-03-26T09:29:47.676Z,6.4
2024-03-26T09:41:47.632Z,6.7
2024-03-26T09:53:47.739Z,7.4
2024-03-26T10:05:47.642Z,7.5
2024-03-26T10:17:47.671Z,7.4
2024-03-26T10:29:47.650Z,8.1
2024-03-26T10:41:47.731Z,8.3
2024-03-26T10:53:47.628Z,9.1
2024-03-26T11:05:47.627Z,9.3
2024-03-26T11:17:47.721Z,8.6
2024-03-26T11:29:47.752Z,9.1
2024-03-26T11:41:47.722Z,9.3
2024-03-26T11:53:47.621Z,10.1
2024-03-26T12:05:47.629Z,10.7
2024-03-26T12:17:47.642Z,11.6
2024-03-26T12:29:47.624Z,11.1
2024-03-26T12:41:47.694Z,11.4
2024-03-26T12:53:47.641Z,11.6
2024-03-26T13:05:48.617Z,10.8
2024-03-26T13:17:47.679Z,10.8
2024-03-26T13:29:47.641Z,10.4
2024-03-26T13:41:47.734Z,11.5
2024-03-26T13:53:47.724Z,12.4
2024-03-26T14:05:47.647Z,12.6
2024-03-26T14:17:47.693Z,12.5
2024-03-26T14:29:47.729Z,12.9
2024-03-26T14:41:47.629Z,12.6
2024-03-26T14:53:47.685Z,11.9
2024-03-26T15:05:47.734Z,12.2
2024-03-26T15:17:47.741Z,12.5
2024-03-26T15:29:47.730Z,12.3
2024-03-26T15:41:47.630Z,12.2
2024-03-26T15:53:47.658Z,11.7
2024-03-26T16:05:47.744Z,11.7
2024-03-26T16:17:47.655Z,11.4
2024-03-26T16:29:47.631Z,11.3
2024-03-26T16:41:47.624Z,11.4
2024-03-26T16:53:47.638Z,11.1
2024-03-26T17:05:47.629Z,10.7
2024-03-26T17:17:47.753Z,10.2
2024-03-26T17:29:47.634Z,10.0
2024-03-26T17:41:47.732Z,10.1
2024-03-26T17:53:47.686Z,9.8
2024-03-26T18:05:47.702Z,9.3
2024-03-26T18:17:47.759Z,9.1
2024-03-26T18:29:47.636Z,8.9
2024-03-26T18:41:47.707Z,8.6
2024-03-26T18:53:47.628Z,8.4
2024-03-26T19:05:47.768Z,8.5
2024-03-26T19:17:47.739Z,8.8
2024-03-26T19:29:47.690Z,8.8
2024-03-26T19:41:47.631Z,8.9
2024-03-26T19:53:48.230Z,8.8
2024-03-26T20:05:47.671Z,8.5
2024-03-26T20:17:47.740Z,8.4
2024-03-26T20:29:47.784Z,8.6
2024-03-26T20:41:47.752Z,8.6
2024-03-26T20:53:47.674Z,8.5
2024-03-26T21:05:47.643Z,8.4
2024-03-26T21:17:47.639Z,8.4
2024-03-26T21:29:47.728Z,8.8
2024-03-26T21:41:47.662Z,8.4
2024-03-26T21:53:47.702Z,8.4
2024-03-26T22:05:47.747Z,8.1
2024-03-26T22:17:47.646Z,8.2
2024-03-26T22:29:47.700Z,8.1
2024-03-26T22:41:47.635Z,7.7
2024-03-26T22:53:47.640Z,7.7
2024-03-26T23:05:47.736Z,8.1
2024-03-26T23:17:47.691Z,8.4
2024-03-26T23:29:47.743Z,8.8
2024-03-26T23:41:47.726Z,8.9
2024-03-26T23:53:47.735Z,8.7
